SCO15RT EGPH-EGAA
Flight info
| Callsign | SCO15RT |
|---|---|
| Flight time | 0h 42m |
| Altitude | 18000 |
| Route | TLA DCT TRN P600 BLACA DCT BELZU |
| Aircraft | AT76/M-SDFGIRY/S |
Departure
| Time | 2026-05-06 23:08 |
|---|---|
| Airport | Edinburgh Airport (EGPH) |
Arrival
| Time | 2026-05-06 23:51 |
|---|---|
| Airport | Belfast International Airport (EGAA) |
| Time | Latitude | Longitude | Altitude | Speed | Heading |
|---|---|---|---|---|---|
| 2026-05-06 22:25 | 55.94612 | -3.36626 | 113 ft | 0 kts | 89° |
| 2026-05-06 22:53 | 55.94612 | -3.36648 | 113 ft | 9 kts | 89° |
| 2026-05-06 22:53 | 55.94611 | -3.36696 | 113 ft | 9 kts | 89° |
| 2026-05-06 22:53 | 55.94611 | -3.36742 | 113 ft | 10 kts | 89° |
| 2026-05-06 22:54 | 55.94611 | -3.36745 | 113 ft | 0 kts | 89° |
| 2026-05-06 22:58 | 55.94612 | -3.36743 | 113 ft | 1 kts | 74° |
| 2026-05-06 22:58 | 55.94644 | -3.36735 | 113 ft | 8 kts | 359° |
| 2026-05-06 22:58 | 55.94676 | -3.36735 | 113 ft | 11 kts | 359° |
| 2026-05-06 22:59 | 55.94701 | -3.36735 | 113 ft | 17 kts | 0° |
| 2026-05-06 22:59 | 55.94737 | -3.36734 | 113 ft | 28 kts | 356° |
| 2026-05-06 23:00 | 55.94777 | -3.36748 | 113 ft | 35 kts | 345° |
| 2026-05-06 23:01 | 55.94812 | -3.36765 | 111 ft | 36 kts | 344° |
| 2026-05-06 23:01 | 55.94848 | -3.36779 | 113 ft | 2 kts | 359° |
| 2026-05-06 23:01 | 55.94853 | -3.36780 | 113 ft | 0 kts | 359° |
| 2026-05-06 23:01 | 55.94855 | -3.36780 | 113 ft | 0 kts | 359° |
| 2026-05-06 23:02 | 55.94856 | -3.36780 | 113 ft | 4 kts | 359° |
| 2026-05-06 23:02 | 55.94899 | -3.36806 | 111 ft | 4 kts | 329° |
| 2026-05-06 23:03 | 55.94964 | -3.36801 | 112 ft | 13 kts | 58° |
| 2026-05-06 23:03 | 55.95027 | -3.36598 | 112 ft | 22 kts | 58° |
| 2026-05-06 23:03 | 55.95101 | -3.36378 | 110 ft | 20 kts | 58° |
| 2026-05-06 23:03 | 55.95171 | -3.36172 | 112 ft | 19 kts | 59° |
| 2026-05-06 23:04 | 55.95215 | -3.36042 | 112 ft | 12 kts | 58° |
| 2026-05-06 23:04 | 55.95261 | -3.35905 | 112 ft | 14 kts | 58° |
| 2026-05-06 23:04 | 55.95313 | -3.35752 | 112 ft | 15 kts | 59° |
| 2026-05-06 23:04 | 55.95359 | -3.35613 | 113 ft | 10 kts | 66° |
| 2026-05-06 23:05 | 55.95363 | -3.35504 | 113 ft | 3 kts | 90° |
| 2026-05-06 23:05 | 55.95363 | -3.35499 | 113 ft | 0 kts | 90° |
| 2026-05-06 23:05 | 55.95363 | -3.35494 | 113 ft | 1 kts | 90° |
| 2026-05-06 23:06 | 55.95363 | -3.35459 | 113 ft | 5 kts | 83° |
| 2026-05-06 23:06 | 55.95384 | -3.35387 | 110 ft | 7 kts | 57° |
| 2026-05-06 23:06 | 55.95427 | -3.35362 | 113 ft | 3 kts | 330° |
| 2026-05-06 23:06 | 55.95463 | -3.35401 | 112 ft | 8 kts | 332° |
| 2026-05-06 23:07 | 55.95496 | -3.35437 | 112 ft | 4 kts | 329° |
| 2026-05-06 23:07 | 55.95546 | -3.35490 | 110 ft | 14 kts | 328° |
| 2026-05-06 23:07 | 55.95554 | -3.35614 | 109 ft | 26 kts | 239° |
| 2026-05-06 23:07 | 55.95338 | -3.36247 | 105 ft | 90 kts | 238° |
| 2026-05-06 23:08 | 55.94946 | -3.37402 | 236 ft | 116 kts | 235° |
| 2026-05-06 23:08 | 55.94536 | -3.38653 | 608 ft | 119 kts | 237° |
| 2026-05-06 23:08 | 55.94151 | -3.39962 | 1070 ft | 120 kts | 236° |
| 2026-05-06 23:08 | 55.93648 | -3.41359 | 1202 ft | 144 kts | 234° |
| 2026-05-06 23:09 | 55.93072 | -3.42974 | 1372 ft | 161 kts | 234° |
| 2026-05-06 23:09 | 55.92459 | -3.44700 | 1627 ft | 171 kts | 233° |
| 2026-05-06 23:09 | 55.91796 | -3.46578 | 1717 ft | 186 kts | 233° |
| 2026-05-06 23:09 | 55.91085 | -3.48601 | 1762 ft | 199 kts | 234° |
| 2026-05-06 23:10 | 55.90350 | -3.50731 | 1921 ft | 202 kts | 235° |
| 2026-05-06 23:10 | 55.89638 | -3.52876 | 2147 ft | 201 kts | 236° |
| 2026-05-06 23:10 | 55.88786 | -3.54815 | 2237 ft | 201 kts | 211° |
| 2026-05-06 23:10 | 55.87455 | -3.55301 | 2395 ft | 199 kts | 174° |
| 2026-05-06 23:11 | 55.86084 | -3.54860 | 2440 ft | 201 kts | 170° |
| 2026-05-06 23:11 | 55.84721 | -3.54261 | 2494 ft | 204 kts | 166° |
| 2026-05-06 23:11 | 55.83359 | -3.53531 | 2552 ft | 205 kts | 165° |
| 2026-05-06 23:11 | 55.82011 | -3.52768 | 2782 ft | 197 kts | 164° |
| 2026-05-06 23:12 | 55.80758 | -3.52038 | 3245 ft | 182 kts | 164° |
| 2026-05-06 23:12 | 55.79590 | -3.51362 | 3679 ft | 171 kts | 165° |
| 2026-05-06 23:12 | 55.78467 | -3.50731 | 4000 ft | 169 kts | 166° |
| 2026-05-06 23:12 | 55.77337 | -3.50111 | 4274 ft | 170 kts | 166° |
| 2026-05-06 23:13 | 55.76199 | -3.49492 | 4551 ft | 172 kts | 166° |
| 2026-05-06 23:13 | 55.75054 | -3.48871 | 4817 ft | 173 kts | 166° |
| 2026-05-06 23:13 | 55.73899 | -3.48240 | 5060 ft | 174 kts | 166° |
| 2026-05-06 23:13 | 55.72739 | -3.47606 | 5277 ft | 176 kts | 166° |
| 2026-05-06 23:14 | 55.71564 | -3.46968 | 5523 ft | 177 kts | 165° |
| 2026-05-06 23:14 | 55.70386 | -3.46320 | 5791 ft | 177 kts | 165° |
| 2026-05-06 23:14 | 55.69204 | -3.45682 | 6037 ft | 178 kts | 165° |
| 2026-05-06 23:14 | 55.68017 | -3.45037 | 6283 ft | 179 kts | 165° |
| 2026-05-06 23:15 | 55.66825 | -3.44387 | 6530 ft | 179 kts | 165° |
| 2026-05-06 23:15 | 55.65629 | -3.43735 | 6768 ft | 180 kts | 165° |
| 2026-05-06 23:15 | 55.64425 | -3.43084 | 6997 ft | 181 kts | 165° |
| 2026-05-06 23:15 | 55.63215 | -3.42425 | 7218 ft | 182 kts | 165° |
| 2026-05-06 23:16 | 55.61999 | -3.41767 | 7426 ft | 183 kts | 166° |
| 2026-05-06 23:16 | 55.60776 | -3.41104 | 7641 ft | 184 kts | 166° |
| 2026-05-06 23:16 | 55.59546 | -3.40437 | 7858 ft | 185 kts | 166° |
| 2026-05-06 23:16 | 55.58309 | -3.39771 | 8067 ft | 187 kts | 166° |
| 2026-05-06 23:17 | 55.57066 | -3.39098 | 8295 ft | 187 kts | 166° |
| 2026-05-06 23:17 | 55.55806 | -3.38942 | 8432 ft | 183 kts | 202° |
| 2026-05-06 23:17 | 55.54896 | -3.40391 | 8635 ft | 180 kts | 243° |
| 2026-05-06 23:17 | 55.54373 | -3.42406 | 8841 ft | 181 kts | 246° |
| 2026-05-06 23:18 | 55.53880 | -3.44455 | 9060 ft | 181 kts | 247° |
| 2026-05-06 23:18 | 55.53387 | -3.46510 | 9278 ft | 182 kts | 247° |
| 2026-05-06 23:18 | 55.52883 | -3.48562 | 9503 ft | 182 kts | 246° |
| 2026-05-06 23:18 | 55.52352 | -3.50593 | 9724 ft | 182 kts | 245° |
| 2026-05-06 23:19 | 55.51813 | -3.52591 | 9919 ft | 183 kts | 245° |
| 2026-05-06 23:19 | 55.51260 | -3.54618 | 10109 ft | 183 kts | 245° |
| 2026-05-06 23:19 | 55.50703 | -3.56646 | 10278 ft | 184 kts | 245° |
| 2026-05-06 23:19 | 55.50146 | -3.58674 | 10459 ft | 184 kts | 245° |
| 2026-05-06 23:20 | 55.49585 | -3.60707 | 10637 ft | 185 kts | 245° |
| 2026-05-06 23:20 | 55.49024 | -3.62744 | 10833 ft | 185 kts | 245° |
| 2026-05-06 23:20 | 55.48462 | -3.64784 | 11005 ft | 185 kts | 245° |
| 2026-05-06 23:20 | 55.47899 | -3.66825 | 11171 ft | 186 kts | 245° |
| 2026-05-06 23:21 | 55.47334 | -3.68873 | 11350 ft | 186 kts | 245° |
| 2026-05-06 23:21 | 55.46768 | -3.70925 | 11521 ft | 186 kts | 245° |
| 2026-05-06 23:21 | 55.46197 | -3.72979 | 11688 ft | 187 kts | 245° |
| 2026-05-06 23:21 | 55.45625 | -3.75038 | 11859 ft | 187 kts | 245° |
| 2026-05-06 23:22 | 55.45055 | -3.77097 | 12020 ft | 188 kts | 245° |
| 2026-05-06 23:22 | 55.44480 | -3.79167 | 12177 ft | 188 kts | 245° |
| 2026-05-06 23:22 | 55.43906 | -3.81240 | 12348 ft | 189 kts | 245° |
| 2026-05-06 23:22 | 55.43328 | -3.83315 | 12512 ft | 189 kts | 245° |
| 2026-05-06 23:23 | 55.42748 | -3.85396 | 12671 ft | 190 kts | 245° |
| 2026-05-06 23:23 | 55.42165 | -3.87482 | 12833 ft | 190 kts | 245° |
| 2026-05-06 23:23 | 55.41583 | -3.89572 | 13027 ft | 190 kts | 245° |
| 2026-05-06 23:23 | 55.41001 | -3.91652 | 13189 ft | 190 kts | 245° |
| 2026-05-06 23:24 | 55.40418 | -3.93737 | 13360 ft | 190 kts | 245° |
| 2026-05-06 23:24 | 55.39834 | -3.95826 | 13509 ft | 191 kts | 245° |
| 2026-05-06 23:24 | 55.39248 | -3.97920 | 13675 ft | 191 kts | 245° |
| 2026-05-06 23:24 | 55.38660 | -4.00016 | 13817 ft | 191 kts | 245° |
| 2026-05-06 23:25 | 55.38070 | -4.02121 | 13953 ft | 192 kts | 245° |
| 2026-05-06 23:25 | 55.37480 | -4.04226 | 14085 ft | 192 kts | 245° |
| 2026-05-06 23:25 | 55.36888 | -4.06332 | 14208 ft | 192 kts | 245° |
| 2026-05-06 23:25 | 55.36294 | -4.08444 | 14331 ft | 193 kts | 245° |
| 2026-05-06 23:26 | 55.35700 | -4.10559 | 14453 ft | 193 kts | 245° |
| 2026-05-06 23:26 | 55.35208 | -4.12326 | 14563 ft | 192 kts | 247° |
| 2026-05-06 23:26 | 55.34618 | -4.14454 | 14652 ft | 194 kts | 245° |
| 2026-05-06 23:26 | 55.34009 | -4.16577 | 14777 ft | 195 kts | 245° |
| 2026-05-06 23:27 | 55.33402 | -4.18706 | 14897 ft | 195 kts | 245° |
| 2026-05-06 23:27 | 55.32798 | -4.20839 | 15010 ft | 195 kts | 245° |
| 2026-05-06 23:27 | 55.32193 | -4.22973 | 15129 ft | 195 kts | 245° |
| 2026-05-06 23:27 | 55.31588 | -4.25105 | 15237 ft | 195 kts | 245° |
| 2026-05-06 23:28 | 55.30983 | -4.27242 | 15343 ft | 196 kts | 245° |
| 2026-05-06 23:28 | 55.30376 | -4.29379 | 15455 ft | 196 kts | 245° |
| 2026-05-06 23:28 | 55.29769 | -4.31519 | 15562 ft | 196 kts | 245° |
| 2026-05-06 23:28 | 55.29168 | -4.33633 | 15664 ft | 196 kts | 245° |
| 2026-05-06 23:29 | 55.28557 | -4.35775 | 15775 ft | 197 kts | 245° |
| 2026-05-06 23:29 | 55.27946 | -4.37923 | 15877 ft | 197 kts | 245° |
| 2026-05-06 23:29 | 55.27333 | -4.40069 | 15977 ft | 197 kts | 245° |
| 2026-05-06 23:29 | 55.26721 | -4.42216 | 16076 ft | 196 kts | 245° |
| 2026-05-06 23:30 | 55.26111 | -4.44353 | 16186 ft | 196 kts | 245° |
| 2026-05-06 23:30 | 55.25499 | -4.46495 | 16277 ft | 196 kts | 245° |
| 2026-05-06 23:30 | 55.24885 | -4.48635 | 16362 ft | 197 kts | 245° |
| 2026-05-06 23:30 | 55.24271 | -4.50780 | 16456 ft | 197 kts | 245° |
| 2026-05-06 23:31 | 55.23656 | -4.52921 | 16547 ft | 197 kts | 245° |
| 2026-05-06 23:31 | 55.23036 | -4.55063 | 16771 ft | 197 kts | 245° |
| 2026-05-06 23:31 | 55.22400 | -4.57199 | 17067 ft | 198 kts | 244° |
| 2026-05-06 23:31 | 55.21760 | -4.59340 | 17364 ft | 199 kts | 245° |
| 2026-05-06 23:32 | 55.21130 | -4.61498 | 17651 ft | 199 kts | 245° |
| 2026-05-06 23:32 | 55.20497 | -4.63684 | 17838 ft | 204 kts | 245° |
| 2026-05-06 23:32 | 55.19845 | -4.65941 | 17920 ft | 212 kts | 245° |
| 2026-05-06 23:32 | 55.19167 | -4.68306 | 17955 ft | 222 kts | 245° |
| 2026-05-06 23:33 | 55.18702 | -4.69929 | 17964 ft | 228 kts | 245° |
| 2026-05-06 23:33 | 55.17974 | -4.72451 | 17970 ft | 236 kts | 245° |
| 2026-05-06 23:33 | 55.17220 | -4.75049 | 17957 ft | 243 kts | 245° |
| 2026-05-06 23:33 | 55.16447 | -4.77711 | 17967 ft | 248 kts | 245° |
| 2026-05-06 23:34 | 55.15659 | -4.80420 | 17970 ft | 252 kts | 244° |
| 2026-05-06 23:34 | 55.14858 | -4.83172 | 17975 ft | 256 kts | 244° |
| 2026-05-06 23:34 | 55.14046 | -4.85960 | 17971 ft | 259 kts | 244° |
| 2026-05-06 23:34 | 55.13227 | -4.88777 | 17972 ft | 261 kts | 244° |
| 2026-05-06 23:35 | 55.12401 | -4.91612 | 17969 ft | 263 kts | 244° |
| 2026-05-06 23:35 | 55.11566 | -4.94465 | 17970 ft | 264 kts | 244° |
| 2026-05-06 23:35 | 55.10380 | -4.96892 | 17973 ft | 268 kts | 219° |
| 2026-05-06 23:35 | 55.08746 | -4.98493 | 17972 ft | 271 kts | 209° |
| 2026-05-06 23:36 | 55.07026 | -4.99864 | 17975 ft | 272 kts | 208° |
| 2026-05-06 23:36 | 55.05294 | -5.01216 | 17976 ft | 273 kts | 208° |
| 2026-05-06 23:36 | 55.03577 | -5.02629 | 17977 ft | 273 kts | 210° |
| 2026-05-06 23:36 | 55.01873 | -5.04110 | 17965 ft | 274 kts | 210° |
| 2026-05-06 23:37 | 55.00165 | -5.05596 | 17968 ft | 274 kts | 210° |
| 2026-05-06 23:37 | 54.98456 | -5.07078 | 17968 ft | 275 kts | 210° |
| 2026-05-06 23:37 | 54.96746 | -5.08560 | 17967 ft | 275 kts | 210° |
| 2026-05-06 23:37 | 54.95035 | -5.10042 | 17975 ft | 275 kts | 210° |
| 2026-05-06 23:38 | 54.93421 | -5.11719 | 17972 ft | 266 kts | 226° |
| 2026-05-06 23:38 | 54.92515 | -5.14434 | 17976 ft | 262 kts | 258° |
| 2026-05-06 23:38 | 54.92306 | -5.17573 | 17974 ft | 262 kts | 264° |
| 2026-05-06 23:38 | 54.92040 | -5.20719 | 17963 ft | 264 kts | 259° |
| 2026-05-06 23:39 | 54.91543 | -5.23892 | 17350 ft | 276 kts | 252° |
| 2026-05-06 23:39 | 54.90809 | -5.26974 | 16731 ft | 276 kts | 246° |
| 2026-05-06 23:39 | 54.89980 | -5.29993 | 16130 ft | 277 kts | 245° |
| 2026-05-06 23:39 | 54.89143 | -5.33008 | 15538 ft | 277 kts | 245° |
| 2026-05-06 23:40 | 54.88334 | -5.35979 | 14952 ft | 260 kts | 246° |
| 2026-05-06 23:40 | 54.87616 | -5.38704 | 14442 ft | 237 kts | 246° |
| 2026-05-06 23:40 | 54.86963 | -5.41217 | 13982 ft | 220 kts | 246° |
| 2026-05-06 23:40 | 54.86354 | -5.43557 | 13582 ft | 204 kts | 246° |
| 2026-05-06 23:41 | 54.85806 | -5.45657 | 13499 ft | 178 kts | 246° |
| 2026-05-06 23:41 | 54.85327 | -5.47496 | 13476 ft | 162 kts | 246° |
| 2026-05-06 23:41 | 54.84872 | -5.49228 | 13471 ft | 159 kts | 245° |
| 2026-05-06 23:41 | 54.84390 | -5.51066 | 13151 ft | 180 kts | 246° |
| 2026-05-06 23:42 | 54.83855 | -5.53161 | 12688 ft | 194 kts | 246° |
| 2026-05-06 23:42 | 54.83323 | -5.55297 | 12227 ft | 192 kts | 247° |
| 2026-05-06 23:42 | 54.82791 | -5.57414 | 11768 ft | 191 kts | 246° |
| 2026-05-06 23:42 | 54.82252 | -5.59506 | 11322 ft | 189 kts | 246° |
| 2026-05-06 23:43 | 54.81713 | -5.61581 | 10885 ft | 188 kts | 246° |
| 2026-05-06 23:43 | 54.81175 | -5.63639 | 10461 ft | 187 kts | 246° |
| 2026-05-06 23:43 | 54.80639 | -5.65687 | 10040 ft | 184 kts | 246° |
| 2026-05-06 23:43 | 54.80113 | -5.67690 | 9596 ft | 184 kts | 246° |
| 2026-05-06 23:44 | 54.79567 | -5.69772 | 9134 ft | 196 kts | 246° |
| 2026-05-06 23:44 | 54.78988 | -5.71971 | 8663 ft | 205 kts | 245° |
| 2026-05-06 23:44 | 54.78406 | -5.74188 | 8184 ft | 197 kts | 245° |
| 2026-05-06 23:44 | 54.77856 | -5.76296 | 7764 ft | 186 kts | 245° |
| 2026-05-06 23:45 | 54.77353 | -5.78308 | 7372 ft | 179 kts | 245° |
| 2026-05-06 23:45 | 54.76849 | -5.80282 | 6760 ft | 184 kts | 244° |
| 2026-05-06 23:45 | 54.76297 | -5.82343 | 5990 ft | 193 kts | 243° |
| 2026-05-06 23:45 | 54.75711 | -5.84473 | 5205 ft | 198 kts | 243° |
| 2026-05-06 23:46 | 54.75137 | -5.86566 | 4938 ft | 180 kts | 243° |
| 2026-05-06 23:46 | 54.74648 | -5.88435 | 4743 ft | 163 kts | 244° |
| 2026-05-06 23:46 | 54.74197 | -5.90224 | 4479 ft | 162 kts | 244° |
| 2026-05-06 23:46 | 54.73762 | -5.92014 | 4215 ft | 161 kts | 245° |
| 2026-05-06 23:47 | 54.73347 | -5.93811 | 3962 ft | 160 kts | 246° |
| 2026-05-06 23:47 | 54.72949 | -5.95610 | 3705 ft | 160 kts | 247° |
| 2026-05-06 23:47 | 54.72572 | -5.97403 | 3471 ft | 155 kts | 248° |
| 2026-05-06 23:47 | 54.72216 | -5.99109 | 3173 ft | 146 kts | 245° |
| 2026-05-06 23:48 | 54.71804 | -6.00685 | 2881 ft | 148 kts | 242° |
| 2026-05-06 23:48 | 54.71338 | -6.02338 | 2662 ft | 155 kts | 240° |
| 2026-05-06 23:48 | 54.70836 | -6.03965 | 2768 ft | 148 kts | 237° |
| 2026-05-06 23:48 | 54.70348 | -6.05476 | 2859 ft | 139 kts | 238° |
| 2026-05-06 23:49 | 54.69854 | -6.06958 | 2805 ft | 142 kts | 233° |
| 2026-05-06 23:49 | 54.69357 | -6.08492 | 2632 ft | 150 kts | 238° |
| 2026-05-06 23:49 | 54.68838 | -6.10124 | 2377 ft | 165 kts | 240° |
| 2026-05-06 23:49 | 54.68333 | -6.11988 | 1999 ft | 180 kts | 240° |
| 2026-05-06 23:50 | 54.67782 | -6.13994 | 1451 ft | 179 kts | 243° |
| 2026-05-06 23:50 | 54.66778 | -6.17686 | 589 ft | 167 kts | 246° |
| 2026-05-06 23:50 | 54.66316 | -6.19470 | 332 ft | 157 kts | 241° |
| 2026-05-06 23:51 | 54.65903 | -6.20995 | 269 ft | 83 kts | 246° |
| 2026-05-06 23:51 | 54.65852 | -6.21333 | 268 ft | 10 kts | 349° |
| 2026-05-06 23:51 | 54.65914 | -6.21362 | 268 ft | 8 kts | 333° |
| 2026-05-06 23:51 | 54.65941 | -6.21385 | 268 ft | 1 kts | 331° |
| 2026-05-06 23:52 | 54.65944 | -6.21389 | 268 ft | 0 kts | 329° |
| 2026-05-06 23:52 | 54.65958 | -6.21395 | 268 ft | 5 kts | 354° |
| 2026-05-06 23:52 | 54.65996 | -6.21343 | 268 ft | 9 kts | 64° |
| 2026-05-06 23:53 | 54.66023 | -6.21244 | 268 ft | 9 kts | 65° |
| 2026-05-06 23:53 | 54.66072 | -6.21219 | 268 ft | 4 kts | 331° |
| 2026-05-06 23:53 | 54.66104 | -6.21208 | 268 ft | 5 kts | 58° |
| 2026-05-06 23:53 | 54.66118 | -6.21157 | 268 ft | 4 kts | 66° |
| 2026-05-06 23:54 | 54.66121 | -6.21145 | 268 ft | 0 kts | 64° |